createdAt,value
2023-03-29T00:00:03.538Z,3.37
2023-03-29T00:02:39.199Z,3.50
2023-03-29T00:05:07.463Z,3.63
2023-03-29T00:07:34.886Z,2.73
2023-03-29T00:10:04.630Z,2.17
2023-03-29T00:12:32.310Z,5.07
2023-03-29T00:14:59.858Z,1.83
2023-03-29T00:17:27.395Z,5.40
2023-03-29T00:19:54.952Z,4.30
2023-03-29T00:22:22.362Z,1.97
2023-03-29T00:24:53.762Z,3.33
2023-03-29T00:27:22.087Z,6.40
2023-03-29T00:29:49.502Z,8.27
2023-03-29T00:32:16.889Z,5.07
2023-03-29T00:34:46.050Z,4.93
2023-03-29T00:37:14.852Z,3.13
2023-03-29T00:39:42.583Z,7.43
2023-03-29T00:42:17.501Z,3.77
2023-03-29T00:45:06.133Z,6.10
2023-03-29T00:47:39.341Z,2.17
2023-03-29T00:50:22.458Z,2.43
2023-03-29T00:53:01.451Z,2.63
2023-03-29T00:55:33.584Z,2.40
2023-03-29T00:58:02.705Z,6.90
2023-03-29T01:00:42.836Z,6.50
2023-03-29T01:03:14.208Z,4.53
2023-03-29T01:05:45.830Z,3.87
2023-03-29T01:08:22.060Z,3.03
2023-03-29T01:10:55.255Z,3.97
2023-03-29T01:13:31.193Z,4.77
2023-03-29T01:15:59.333Z,4.20
2023-03-29T01:18:26.978Z,3.97
2023-03-29T01:21:07.576Z,3.10
2023-03-29T01:24:09.739Z,3.70
2023-03-29T01:26:47.204Z,3.23
2023-03-29T01:29:38.982Z,3.07
2023-03-29T01:32:35.341Z,2.70
2023-03-29T01:35:16.036Z,3.70
2023-03-29T01:38:01.205Z,2.77
2023-03-29T01:40:28.599Z,3.33
2023-03-29T01:43:17.580Z,2.60
2023-03-29T01:46:14.428Z,4.00
2023-03-29T01:48:48.734Z,3.27
2023-03-29T01:51:36.524Z,5.73
2023-03-29T01:54:18.193Z,2.50
2023-03-29T01:56:49.211Z,2.70
2023-03-29T01:59:22.214Z,5.13
2023-03-29T02:01:53.573Z,2.43
2023-03-29T02:04:36.573Z,2.93
2023-03-29T02:07:07.263Z,3.43
2023-03-29T02:09:37.301Z,4.50
2023-03-29T02:12:07.184Z,2.73
2023-03-29T02:14:35.152Z,4.47
2023-03-29T02:17:22.452Z,6.10
2023-03-29T02:19:55.079Z,3.07
2023-03-29T02:22:28.574Z,3.13
2023-03-29T02:24:59.289Z,2.93
2023-03-29T02:27:29.137Z,4.13
2023-03-29T02:29:58.594Z,3.17
2023-03-29T02:32:35.610Z,3.50
2023-03-29T02:35:16.757Z,4.90
2023-03-29T02:37:49.678Z,2.90
2023-03-29T02:40:18.082Z,3.33
2023-03-29T02:42:46.314Z,3.87
2023-03-29T02:45:17.147Z,5.07
2023-03-29T02:47:54.484Z,8.03
2023-03-29T02:50:26.330Z,3.63
2023-03-29T02:52:59.966Z,4.07
2023-03-29T02:55:34.996Z,3.90
2023-03-29T02:58:08.095Z,5.30
2023-03-29T03:00:39.518Z,2.70
2023-03-29T03:03:08.133Z,4.67
2023-03-29T03:05:36.241Z,3.80
2023-03-29T03:08:04.678Z,7.17
2023-03-29T03:10:33.839Z,4.83
2023-03-29T03:13:01.835Z,2.60
2023-03-29T03:15:31.263Z,4.93
2023-03-29T03:17:58.952Z,4.83
2023-03-29T03:20:26.630Z,4.13
2023-03-29T03:22:57.524Z,5.87
2023-03-29T03:25:25.604Z,4.27
2023-03-29T03:27:53.583Z,5.70
2023-03-29T03:30:23.921Z,5.23
2023-03-29T03:33:11.752Z,6.43
2023-03-29T03:36:11.404Z,4.00
2023-03-29T03:38:39.829Z,3.03
2023-03-29T03:41:07.639Z,6.13
2023-03-29T03:43:35.951Z,4.07
2023-03-29T03:46:03.772Z,7.20
2023-03-29T03:48:31.681Z,3.97
2023-03-29T03:51:22.487Z,5.03
2023-03-29T03:53:51.872Z,4.77
2023-03-29T03:56:42.360Z,4.53
2023-03-29T03:59:15.583Z,5.13
2023-03-29T04:01:59.925Z,5.37
2023-03-29T04:04:27.589Z,5.27
2023-03-29T04:07:03.570Z,4.77
2023-03-29T04:09:53.145Z,3.40
2023-03-29T04:12:30.638Z,4.03
2023-03-29T04:14:58.178Z,3.93
2023-03-29T04:17:27.744Z,5.07
2023-03-29T04:20:02.261Z,5.33
2023-03-29T04:22:33.892Z,5.27
2023-03-29T04:25:01.453Z,6.27
2023-03-29T04:27:41.073Z,5.40
2023-03-29T04:30:17.368Z,2.30
2023-03-29T04:33:02.835Z,3.93
2023-03-29T04:35:31.070Z,7.10
2023-03-29T04:37:58.482Z,7.87
2023-03-29T04:40:25.922Z,7.47
2023-03-29T04:43:03.209Z,6.07
2023-03-29T04:45:31.695Z,8.80
2023-03-29T04:48:19.300Z,17.57
2023-03-29T04:50:47.482Z,4.03
2023-03-29T04:53:17.340Z,3.50
2023-03-29T04:55:46.848Z,5.00
2023-03-29T04:58:21.599Z,6.13
2023-03-29T05:00:51.656Z,12.27
2023-03-29T05:03:27.111Z,10.33
2023-03-29T05:06:12.040Z,15.30
2023-03-29T05:08:40.329Z,5.27
2023-03-29T05:11:19.823Z,10.33
2023-03-29T05:13:47.882Z,10.30
2023-03-29T05:16:16.019Z,7.67
2023-03-29T05:18:44.543Z,5.70
2023-03-29T05:21:12.156Z,9.63
2023-03-29T05:23:43.242Z,12.90
2023-03-29T05:26:16.635Z,14.67
2023-03-29T05:28:50.772Z,8.50
2023-03-29T05:31:18.716Z,8.97
2023-03-29T05:33:50.952Z,5.60
2023-03-29T05:36:19.548Z,8.77
2023-03-29T05:38:50.067Z,11.37
2023-03-29T05:41:19.607Z,6.30
2023-03-29T05:43:56.323Z,10.07
2023-03-29T05:46:25.794Z,11.90
2023-03-29T05:48:56.724Z,11.10
2023-03-29T05:51:36.988Z,7.23
2023-03-29T05:54:05.561Z,8.50
2023-03-29T05:56:33.143Z,10.00
2023-03-29T05:59:02.069Z,7.77
2023-03-29T06:01:30.946Z,9.07
2023-03-29T06:04:06.556Z,10.10
2023-03-29T06:06:42.575Z,4.47
2023-03-29T06:09:10.726Z,6.13
2023-03-29T06:11:51.257Z,7.53
2023-03-29T06:14:31.588Z,9.50
2023-03-29T06:17:12.310Z,3.40
2023-03-29T06:19:40.253Z,3.90
2023-03-29T06:22:07.768Z,9.67
2023-03-29T06:24:35.408Z,5.07
2023-03-29T06:27:09.729Z,4.43
2023-03-29T06:29:37.112Z,3.83
2023-03-29T06:32:07.125Z,6.23
2023-03-29T06:34:54.663Z,4.70
2023-03-29T06:37:31.977Z,5.37
2023-03-29T06:40:13.254Z,4.63
2023-03-29T06:42:45.570Z,2.97
2023-03-29T06:45:23.804Z,4.70
2023-03-29T06:47:52.584Z,8.83
2023-03-29T06:50:20.657Z,4.80
2023-03-29T06:53:04.692Z,5.00
2023-03-29T06:55:32.815Z,6.83
2023-03-29T06:58:11.098Z,5.80
2023-03-29T07:00:39.210Z,4.97
2023-03-29T07:03:19.987Z,4.77
2023-03-29T07:05:52.114Z,5.30
2023-03-29T07:08:22.412Z,3.30
2023-03-29T07:10:59.422Z,5.13
2023-03-29T07:13:33.112Z,10.10
2023-03-29T07:16:04.121Z,4.53
2023-03-29T07:18:44.224Z,3.43
2023-03-29T07:21:17.477Z,4.80
2023-03-29T07:23:44.923Z,6.50
2023-03-29T07:26:12.636Z,4.67
2023-03-29T07:28:40.658Z,6.50
2023-03-29T07:31:11.933Z,7.23
2023-03-29T07:33:46.423Z,13.67
2023-03-29T07:36:15.820Z,10.87
2023-03-29T07:38:43.751Z,12.43
2023-03-29T07:41:16.022Z,12.03
2023-03-29T07:44:05.458Z,5.97
2023-03-29T07:46:33.630Z,6.60
2023-03-29T07:49:01.229Z,5.90
2023-03-29T07:51:28.644Z,8.67
2023-03-29T07:54:05.502Z,4.50
2023-03-29T07:56:32.784Z,8.00
2023-03-29T07:59:12.556Z,6.17
2023-03-29T08:01:42.079Z,3.97
2023-03-29T08:04:38.785Z,4.20
2023-03-29T08:07:19.336Z,4.53
2023-03-29T08:10:07.023Z,4.13
2023-03-29T08:12:50.985Z,5.00
2023-03-29T08:15:20.760Z,4.47
2023-03-29T08:17:48.610Z,7.07
2023-03-29T08:20:16.490Z,6.80
2023-03-29T08:22:46.407Z,4.67
2023-03-29T08:25:32.890Z,7.83
2023-03-29T08:28:01.530Z,8.17
2023-03-29T08:30:37.184Z,6.57
2023-03-29T08:33:06.617Z,11.23
2023-03-29T08:35:34.125Z,13.40
2023-03-29T08:38:24.575Z,8.73
2023-03-29T08:40:52.051Z,7.33
2023-03-29T08:43:50.365Z,4.60
2023-03-29T08:47:07.252Z,6.63
2023-03-29T08:49:48.656Z,5.87
2023-03-29T08:52:46.824Z,5.53
2023-03-29T08:55:35.942Z,13.47
2023-03-29T08:58:28.565Z,5.67
2023-03-29T09:00:59.319Z,3.30
2023-03-29T09:03:49.818Z,2.60
2023-03-29T09:06:28.769Z,3.57
2023-03-29T09:09:17.295Z,3.07
2023-03-29T09:12:19.303Z,4.17
2023-03-29T09:15:10.465Z,2.57
2023-03-29T09:18:11.667Z,2.93
2023-03-29T09:20:53.928Z,3.67
2023-03-29T09:23:48.532Z,4.17
2023-03-29T09:26:54.651Z,2.57
2023-03-29T09:29:45.014Z,5.57
2023-03-29T09:32:39.309Z,4.67
2023-03-29T09:35:30.252Z,2.83
2023-03-29T09:37:58.809Z,3.53
2023-03-29T09:40:44.276Z,8.13
2023-03-29T09:43:27.131Z,2.83
2023-03-29T09:45:57.258Z,4.73
2023-03-29T09:48:27.159Z,5.87
2023-03-29T09:50:57.418Z,4.23
2023-03-29T09:53:25.160Z,6.30
2023-03-29T09:56:02.722Z,3.03
2023-03-29T09:58:44.410Z,7.73
2023-03-29T10:01:15.788Z,6.90
2023-03-29T10:03:50.059Z,4.63
2023-03-29T10:06:19.234Z,3.90
2023-03-29T10:08:59.012Z,4.17
2023-03-29T10:11:39.053Z,2.87
2023-03-29T10:14:14.043Z,11.63
2023-03-29T10:16:46.527Z,15.80
2023-03-29T10:19:19.244Z,4.17
2023-03-29T10:21:51.591Z,2.33
2023-03-29T10:24:23.761Z,5.27
2023-03-29T10:27:01.927Z,2.33
2023-03-29T10:29:38.418Z,1.93
2023-03-29T10:32:36.802Z,2.23
2023-03-29T10:35:23.948Z,2.53
2023-03-29T10:37:55.124Z,2.40
2023-03-29T10:40:29.627Z,6.80
2023-03-29T10:43:11.231Z,3.90
2023-03-29T10:45:40.018Z,3.20
2023-03-29T10:48:12.889Z,1.70
2023-03-29T10:50:42.843Z,3.10
2023-03-29T10:53:19.295Z,2.20
2023-03-29T10:56:04.862Z,1.37
2023-03-29T10:58:53.323Z,1.47
2023-03-29T11:01:39.788Z,1.97
2023-03-29T11:04:23.179Z,2.40
2023-03-29T11:07:09.875Z,1.50
2023-03-29T11:09:49.864Z,1.37
2023-03-29T11:13:08.486Z,1.43
2023-03-29T11:15:45.307Z,1.77
2023-03-29T11:18:28.722Z,3.70
2023-03-29T11:21:23.929Z,2.53
2023-03-29T11:24:00.988Z,2.83
2023-03-29T11:26:56.473Z,1.60
2023-03-29T11:29:34.580Z,2.00
2023-03-29T11:32:29.109Z,1.70
2023-03-29T11:35:03.533Z,1.73
2023-03-29T11:37:53.091Z,6.20
2023-03-29T11:41:01.453Z,1.57
2023-03-29T11:43:51.018Z,1.70
2023-03-29T11:46:23.713Z,1.70
2023-03-29T11:48:59.126Z,1.97
2023-03-29T11:51:41.311Z,1.33
2023-03-29T11:54:14.698Z,3.27
2023-03-29T11:56:48.568Z,2.43
2023-03-29T11:59:29.030Z,2.20
2023-03-29T12:02:33.594Z,3.10
2023-03-29T12:05:10.193Z,5.17
2023-03-29T12:07:46.593Z,1.70
2023-03-29T12:10:23.905Z,3.00
2023-03-29T12:13:02.353Z,5.00
2023-03-29T12:15:36.651Z,1.70
2023-03-29T12:18:22.759Z,3.73
2023-03-29T12:20:57.548Z,1.50
2023-03-29T12:23:31.832Z,2.27
2023-03-29T12:26:17.818Z,1.53
2023-03-29T12:29:09.935Z,0.97
2023-03-29T12:32:05.772Z,0.70
2023-03-29T12:34:58.720Z,2.40
2023-03-29T12:37:53.488Z,0.70
2023-03-29T12:40:45.731Z,2.23
2023-03-29T12:43:37.726Z,0.90
2023-03-29T12:46:33.143Z,0.80
2023-03-29T12:49:19.259Z,0.97
2023-03-29T12:51:49.015Z,1.00
2023-03-29T12:54:20.778Z,2.00
2023-03-29T12:56:54.645Z,1.47
2023-03-29T12:59:43.322Z,1.10
2023-03-29T13:02:17.745Z,1.43
2023-03-29T13:04:51.385Z,1.07
2023-03-29T13:07:27.534Z,0.97
2023-03-29T13:10:29.525Z,3.33
2023-03-29T13:12:57.811Z,1.00
2023-03-29T13:15:26.939Z,1.33
2023-03-29T13:18:03.223Z,1.17
2023-03-29T13:20:40.120Z,0.90
2023-03-29T13:23:40.931Z,0.57
2023-03-29T13:26:28.027Z,0.80
2023-03-29T13:29:01.203Z,1.00
2023-03-29T13:31:38.615Z,2.03
2023-03-29T13:34:32.156Z,0.80
2023-03-29T13:37:08.833Z,2.10
2023-03-29T13:39:37.301Z,0.93
2023-03-29T13:42:34.196Z,1.13
2023-03-29T13:45:23.327Z,2.00
2023-03-29T13:48:20.093Z,1.83
2023-03-29T13:50:57.030Z,2.93
2023-03-29T13:53:43.169Z,1.47
2023-03-29T13:56:18.680Z,1.00
2023-03-29T13:58:58.063Z,5.77
2023-03-29T14:01:28.328Z,0.83
2023-03-29T14:03:56.725Z,1.90
2023-03-29T14:06:31.832Z,1.00
2023-03-29T14:09:06.474Z,2.13
2023-03-29T14:11:34.172Z,0.60
2023-03-29T14:14:05.102Z,2.03
2023-03-29T14:16:36.878Z,0.70
2023-03-29T14:19:11.789Z,1.20
2023-03-29T14:21:41.344Z,3.43
2023-03-29T14:24:31.601Z,2.20
2023-03-29T14:27:01.710Z,1.43
2023-03-29T14:29:33.681Z,0.87
2023-03-29T14:32:11.925Z,1.20
2023-03-29T14:34:40.145Z,2.87
2023-03-29T14:37:09.284Z,2.00
2023-03-29T14:39:37.361Z,2.83
2023-03-29T14:42:17.109Z,1.40
2023-03-29T14:44:45.017Z,1.37
2023-03-29T14:47:20.889Z,1.00
2023-03-29T14:49:48.680Z,1.57
2023-03-29T14:52:16.567Z,1.63
2023-03-29T14:54:47.510Z,1.17
2023-03-29T14:57:18.469Z,1.20
2023-03-29T14:59:56.756Z,3.03
2023-03-29T15:02:33.459Z,1.20
2023-03-29T15:05:07.633Z,1.90
2023-03-29T15:07:37.152Z,1.40
2023-03-29T15:10:06.557Z,3.07
2023-03-29T15:12:34.705Z,5.97
2023-03-29T15:15:03.798Z,4.77
2023-03-29T15:17:51.168Z,2.30
2023-03-29T15:20:25.196Z,1.17
2023-03-29T15:22:56.596Z,1.13
2023-03-29T15:25:33.730Z,1.07
2023-03-29T15:28:01.844Z,3.30
2023-03-29T15:30:46.216Z,4.83
2023-03-29T15:33:22.939Z,1.10
2023-03-29T15:35:54.237Z,4.70
2023-03-29T15:38:27.531Z,3.23
2023-03-29T15:41:01.556Z,3.33
2023-03-29T15:43:29.192Z,1.20
2023-03-29T15:45:58.052Z,1.40
2023-03-29T15:48:28.281Z,1.37
2023-03-29T15:50:56.806Z,2.30
2023-03-29T15:53:25.792Z,2.10
2023-03-29T15:55:55.248Z,1.20
2023-03-29T15:58:27.221Z,2.70
2023-03-29T16:01:11.149Z,2.60
2023-03-29T16:03:40.102Z,1.87
2023-03-29T16:06:12.403Z,3.50
2023-03-29T16:08:42.257Z,2.23
2023-03-29T16:11:09.843Z,9.57
2023-03-29T16:13:37.190Z,2.23
2023-03-29T16:16:05.133Z,1.63
2023-03-29T16:18:32.893Z,6.57
2023-03-29T16:21:00.705Z,7.80
2023-03-29T16:23:28.030Z,1.40
2023-03-29T16:25:55.957Z,1.93
2023-03-29T16:28:23.309Z,2.83
2023-03-29T16:30:51.527Z,1.93
2023-03-29T16:33:18.852Z,2.50
2023-03-29T16:35:46.643Z,3.10
2023-03-29T16:38:14.198Z,2.47
2023-03-29T16:40:42.660Z,4.37
2023-03-29T16:43:16.114Z,1.77
2023-03-29T16:45:43.618Z,2.13
2023-03-29T16:48:17.254Z,2.17
2023-03-29T16:50:49.493Z,1.93
2023-03-29T16:53:18.601Z,6.67
2023-03-29T16:55:46.844Z,3.47
2023-03-29T16:58:15.447Z,2.13
2023-03-29T17:00:46.339Z,1.77
2023-03-29T17:03:16.461Z,4.13
2023-03-29T17:05:51.980Z,1.40
2023-03-29T17:08:21.190Z,2.00
2023-03-29T17:10:53.414Z,1.50
2023-03-29T17:13:22.076Z,5.87
2023-03-29T17:15:56.292Z,2.03
2023-03-29T17:18:27.426Z,3.43
2023-03-29T17:20:59.284Z,2.00
2023-03-29T17:23:26.926Z,1.80
2023-03-29T17:25:55.920Z,2.17
2023-03-29T17:28:23.884Z,2.77
2023-03-29T17:30:51.574Z,3.53
2023-03-29T17:33:22.725Z,1.80
2023-03-29T17:35:50.284Z,4.30
2023-03-29T17:38:17.686Z,4.40
2023-03-29T17:40:52.210Z,2.70
2023-03-29T17:43:19.532Z,2.50
2023-03-29T17:45:50.918Z,2.87
2023-03-29T17:48:18.815Z,2.87
2023-03-29T17:50:46.167Z,3.73
2023-03-29T17:53:13.746Z,2.03
2023-03-29T17:55:41.353Z,3.00
2023-03-29T17:58:08.974Z,3.53
2023-03-29T18:00:36.297Z,2.13
2023-03-29T18:03:03.863Z,2.67
2023-03-29T18:05:31.249Z,2.80
2023-03-29T18:07:58.569Z,3.73
2023-03-29T18:10:25.923Z,2.43
2023-03-29T18:12:54.497Z,2.00
2023-03-29T18:15:21.794Z,2.83
2023-03-29T18:17:49.197Z,2.37
2023-03-29T18:20:17.142Z,2.87
2023-03-29T18:22:44.665Z,5.07
2023-03-29T18:25:11.955Z,3.23
2023-03-29T18:27:40.223Z,3.47
2023-03-29T18:30:08.750Z,6.57
2023-03-29T18:32:36.811Z,5.90
2023-03-29T18:35:04.860Z,7.23
2023-03-29T18:37:32.403Z,6.03
2023-03-29T18:40:00.274Z,5.60
2023-03-29T18:42:27.613Z,4.90
2023-03-29T18:44:54.952Z,5.20
2023-03-29T18:47:22.285Z,5.23
2023-03-29T18:49:49.650Z,4.77
2023-03-29T18:52:17.248Z,5.07
2023-03-29T18:54:44.564Z,4.17
2023-03-29T18:57:11.895Z,3.97
2023-03-29T18:59:39.447Z,3.90
2023-03-29T19:02:07.311Z,4.07
2023-03-29T19:04:34.722Z,4.33
2023-03-29T19:07:02.972Z,5.00
2023-03-29T19:09:30.898Z,5.87
2023-03-29T19:11:58.342Z,6.43
2023-03-29T19:14:25.793Z,5.17
2023-03-29T19:16:53.541Z,4.77
2023-03-29T19:19:23.220Z,3.60
2023-03-29T19:21:50.756Z,3.97
2023-03-29T19:24:18.377Z,3.57
2023-03-29T19:26:47.929Z,3.90
2023-03-29T19:29:15.899Z,4.33
2023-03-29T19:31:43.463Z,4.47
2023-03-29T19:34:11.298Z,3.47
2023-03-29T19:36:38.792Z,5.63
2023-03-29T19:39:06.307Z,3.97
2023-03-29T19:41:33.666Z,4.37
2023-03-29T19:44:01.269Z,5.17
2023-03-29T19:46:29.029Z,5.30
2023-03-29T19:48:56.811Z,6.33
2023-03-29T19:51:26.895Z,6.23
2023-03-29T19:53:55.524Z,6.73
2023-03-29T19:56:25.692Z,6.07
2023-03-29T19:58:53.414Z,6.83
2023-03-29T20:01:21.219Z,7.10
2023-03-29T20:03:49.504Z,6.57
2023-03-29T20:06:18.045Z,6.33
2023-03-29T20:08:45.798Z,7.33
2023-03-29T20:11:14.362Z,8.03
2023-03-29T20:13:43.524Z,7.07
2023-03-29T20:16:16.718Z,7.40
2023-03-29T20:18:45.196Z,7.47
2023-03-29T20:21:16.403Z,8.87
2023-03-29T20:23:44.477Z,7.60
2023-03-29T20:26:11.852Z,7.77
2023-03-29T20:28:39.389Z,8.30
2023-03-29T20:31:10.644Z,7.10
2023-03-29T20:33:38.110Z,9.13
2023-03-29T20:36:06.645Z,11.03
2023-03-29T20:38:35.594Z,6.40
2023-03-29T20:41:04.289Z,6.63
2023-03-29T20:43:37.782Z,6.10
2023-03-29T20:46:05.762Z,5.77
2023-03-29T20:48:33.083Z,8.70
2023-03-29T20:51:03.242Z,6.03
2023-03-29T20:53:34.220Z,5.77
2023-03-29T20:56:02.082Z,5.17
2023-03-29T20:58:29.368Z,5.77
2023-03-29T21:00:58.920Z,5.20
2023-03-29T21:03:26.478Z,4.70
2023-03-29T21:05:55.171Z,5.33
2023-03-29T21:08:22.430Z,4.93
2023-03-29T21:10:49.734Z,4.60
2023-03-29T21:13:18.275Z,6.00
2023-03-29T21:15:46.475Z,4.53
2023-03-29T21:18:13.835Z,5.10
2023-03-29T21:20:41.486Z,4.03
2023-03-29T21:23:08.771Z,4.40
2023-03-29T21:25:37.251Z,4.30
2023-03-29T21:28:04.552Z,5.10
2023-03-29T21:30:32.291Z,4.53
2023-03-29T21:33:00.538Z,4.60
2023-03-29T21:35:28.541Z,4.43
2023-03-29T21:37:55.860Z,5.50
2023-03-29T21:40:23.243Z,4.67
2023-03-29T21:42:50.683Z,4.40
2023-03-29T21:45:18.002Z,5.77
2023-03-29T21:47:45.319Z,4.50
2023-03-29T21:50:12.782Z,4.60
2023-03-29T21:52:40.113Z,4.27
2023-03-29T21:55:07.785Z,4.40
2023-03-29T21:57:35.931Z,4.40
2023-03-29T22:00:11.180Z,4.70
2023-03-29T22:02:39.343Z,5.43
2023-03-29T22:05:07.320Z,4.70
2023-03-29T22:07:38.675Z,4.63
2023-03-29T22:10:09.326Z,5.07
2023-03-29T22:12:37.380Z,5.80
2023-03-29T22:15:06.390Z,7.10
2023-03-29T22:17:36.040Z,6.10
2023-03-29T22:20:11.372Z,5.33
2023-03-29T22:22:52.657Z,6.30
2023-03-29T22:25:20.767Z,7.17
2023-03-29T22:27:49.281Z,6.53
2023-03-29T22:30:17.433Z,6.13
2023-03-29T22:32:44.780Z,6.23
2023-03-29T22:35:12.190Z,6.00
2023-03-29T22:37:43.683Z,6.23
2023-03-29T22:40:12.446Z,11.00
2023-03-29T22:42:39.774Z,7.97
2023-03-29T22:45:07.924Z,7.13
2023-03-29T22:47:35.653Z,6.87
2023-03-29T22:50:03.005Z,7.13
2023-03-29T22:52:30.316Z,7.37
2023-03-29T22:54:57.870Z,7.10
2023-03-29T22:57:25.329Z,7.83
2023-03-29T22:59:52.756Z,7.00
2023-03-29T23:02:20.429Z,7.30
2023-03-29T23:04:48.014Z,8.00
2023-03-29T23:07:15.432Z,7.90
2023-03-29T23:09:42.750Z,10.30
2023-03-29T23:12:10.067Z,8.27
2023-03-29T23:14:37.713Z,7.83
2023-03-29T23:17:05.450Z,8.20
2023-03-29T23:19:32.884Z,8.03
2023-03-29T23:22:00.341Z,8.57
2023-03-29T23:24:30.458Z,7.80
2023-03-29T23:26:57.775Z,7.20
2023-03-29T23:29:26.312Z,7.47
2023-03-29T23:31:53.839Z,8.00
2023-03-29T23:34:22.109Z,10.03
2023-03-29T23:36:49.476Z,7.37
2023-03-29T23:39:16.773Z,8.03
2023-03-29T23:41:44.137Z,7.63
2023-03-29T23:44:11.443Z,7.70
2023-03-29T23:46:39.249Z,7.27
2023-03-29T23:49:06.636Z,8.37
2023-03-29T23:51:34.999Z,7.80
2023-03-29T23:54:02.784Z,7.50
2023-03-29T23:56:30.235Z,10.10
2023-03-29T23:58:57.897Z,7.83
